sensor_id;sensor_type;location;lat;lon;timestamp;P1;durP1;ratioP1;P2;durP2;ratioP2
72286;SDS011;60221;45.696;16.076;2022-11-06T00:01:47;5.93;;;1.27;;
72286;SDS011;60221;45.696;16.076;2022-11-06T00:04:13;5.05;;;0.80;;
72286;SDS011;60221;45.696;16.076;2022-11-06T00:06:39;4.87;;;0.73;;
72286;SDS011;60221;45.696;16.076;2022-11-06T00:09:17;5.78;;;0.80;;
72286;SDS011;60221;45.696;16.076;2022-11-06T00:11:45;5.35;;;0.95;;
72286;SDS011;60221;45.696;16.076;2022-11-06T00:14:13;5.22;;;0.80;;
72286;SDS011;60221;45.696;16.076;2022-11-06T00:16:41;5.00;;;0.45;;
72286;SDS011;60221;45.696;16.076;2022-11-06T00:19:08;4.27;;;0.50;;
72286;SDS011;60221;45.696;16.076;2022-11-06T00:21:35;5.22;;;0.95;;
72286;SDS011;60221;45.696;16.076;2022-11-06T00:24:03;5.62;;;0.75;;
72286;SDS011;60221;45.696;16.076;2022-11-06T00:26:32;3.25;;;0.47;;
72286;SDS011;60221;45.696;16.076;2022-11-06T00:29:00;6.12;;;0.65;;
72286;SDS011;60221;45.696;16.076;2022-11-06T00:31:28;4.67;;;1.13;;
72286;SDS011;60221;45.696;16.076;2022-11-06T00:34:00;6.35;;;0.90;;
72286;SDS011;60221;45.696;16.076;2022-11-06T00:36:28;5.55;;;0.80;;
72286;SDS011;60221;45.696;16.076;2022-11-06T00:38:55;5.45;;;1.10;;
72286;SDS011;60221;45.696;16.076;2022-11-06T00:41:23;4.58;;;0.60;;
72286;SDS011;60221;45.696;16.076;2022-11-06T00:43:52;4.43;;;0.80;;
72286;SDS011;60221;45.696;16.076;2022-11-06T00:46:24;3.00;;;0.50;;
72286;SDS011;60221;45.696;16.076;2022-11-06T00:48:51;4.08;;;0.70;;
72286;SDS011;60221;45.696;16.076;2022-11-06T00:51:20;3.87;;;0.55;;
72286;SDS011;60221;45.696;16.076;2022-11-06T00:53:54;4.45;;;0.37;;
72286;SDS011;60221;45.696;16.076;2022-11-06T00:56:23;5.17;;;0.57;;
72286;SDS011;60221;45.696;16.076;2022-11-06T00:58:51;6.20;;;0.60;;
72286;SDS011;60221;45.696;16.076;2022-11-06T01:03:51;4.78;;;0.65;;
72286;SDS011;60221;45.696;16.076;2022-11-06T01:06:22;4.22;;;0.62;;
72286;SDS011;60221;45.696;16.076;2022-11-06T01:08:51;3.97;;;0.30;;
72286;SDS011;60221;45.696;16.076;2022-11-06T01:11:28;4.35;;;0.53;;
72286;SDS011;60221;45.696;16.076;2022-11-06T01:13:55;3.52;;;0.60;;
72286;SDS011;60221;45.696;16.076;2022-11-06T01:16:25;4.00;;;0.53;;
72286;SDS011;60221;45.696;16.076;2022-11-06T01:18:53;4.78;;;0.70;;
72286;SDS011;60221;45.696;16.076;2022-11-06T01:21:28;3.47;;;0.67;;
72286;SDS011;60221;45.696;16.076;2022-11-06T01:24:02;5.33;;;0.72;;
72286;SDS011;60221;45.696;16.076;2022-11-06T01:26:32;4.30;;;0.30;;
72286;SDS011;60221;45.696;16.076;2022-11-06T01:29:00;4.28;;;0.30;;
72286;SDS011;60221;45.696;16.076;2022-11-06T01:31:28;2.90;;;0.57;;
72286;SDS011;60221;45.696;16.076;2022-11-06T01:33:57;4.13;;;0.67;;
72286;SDS011;60221;45.696;16.076;2022-11-06T01:36:26;5.97;;;0.60;;
72286;SDS011;60221;45.696;16.076;2022-11-06T01:38:54;8.85;;;2.92;;
72286;SDS011;60221;45.696;16.076;2022-11-06T01:41:26;6.05;;;1.25;;
72286;SDS011;60221;45.696;16.076;2022-11-06T01:43:56;4.90;;;0.42;;
72286;SDS011;60221;45.696;16.076;2022-11-06T01:46:31;2.83;;;0.47;;
72286;SDS011;60221;45.696;16.076;2022-11-06T01:51:38;4.90;;;0.45;;
72286;SDS011;60221;45.696;16.076;2022-11-06T01:54:09;4.30;;;0.40;;
72286;SDS011;60221;45.696;16.076;2022-11-06T01:56:37;5.70;;;0.47;;
72286;SDS011;60221;45.696;16.076;2022-11-06T01:59:05;3.10;;;0.20;;
72286;SDS011;60221;45.696;16.076;2022-11-06T02:01:36;3.08;;;0.50;;
72286;SDS011;60221;45.696;16.076;2022-11-06T02:04:13;5.35;;;0.47;;
72286;SDS011;60221;45.696;16.076;2022-11-06T02:07:01;12.18;;;0.93;;
72286;SDS011;60221;45.696;16.076;2022-11-06T02:09:28;5.10;;;0.50;;
72286;SDS011;60221;45.696;16.076;2022-11-06T02:12:00;3.60;;;0.50;;
72286;SDS011;60221;45.696;16.076;2022-11-06T02:14:33;5.25;;;0.40;;
72286;SDS011;60221;45.696;16.076;2022-11-06T02:28:29;4.17;;;0.50;;
72286;SDS011;60221;45.696;16.076;2022-11-06T02:31:12;3.65;;;0.30;;
72286;SDS011;60221;45.696;16.076;2022-11-06T02:33:44;3.30;;;0.33;;
72286;SDS011;60221;45.696;16.076;2022-11-06T02:36:16;3.70;;;0.50;;
72286;SDS011;60221;45.696;16.076;2022-11-06T02:38:51;2.97;;;0.37;;
72286;SDS011;60221;45.696;16.076;2022-11-06T02:41:22;7.53;;;0.45;;
72286;SDS011;60221;45.696;16.076;2022-11-06T02:43:54;5.83;;;0.40;;
72286;SDS011;60221;45.696;16.076;2022-11-06T02:46:26;5.83;;;0.50;;
72286;SDS011;60221;45.696;16.076;2022-11-06T02:49:06;5.58;;;0.42;;
72286;SDS011;60221;45.696;16.076;2022-11-06T02:51:45;6.13;;;0.43;;
72286;SDS011;60221;45.696;16.076;2022-11-06T02:54:14;5.37;;;0.60;;
72286;SDS011;60221;45.696;16.076;2022-11-06T02:56:45;4.20;;;0.33;;
72286;SDS011;60221;45.696;16.076;2022-11-06T02:59:23;4.40;;;0.50;;
72286;SDS011;60221;45.696;16.076;2022-11-06T03:01:58;8.10;;;0.80;;
72286;SDS011;60221;45.696;16.076;2022-11-06T03:09:53;6.35;;;0.60;;
72286;SDS011;60221;45.696;16.076;2022-11-06T03:12:30;4.40;;;0.33;;
72286;SDS011;60221;45.696;16.076;2022-11-06T03:23:31;2.37;;;0.35;;
72286;SDS011;60221;45.696;16.076;2022-11-06T03:26:12;5.85;;;0.50;;
72286;SDS011;60221;45.696;16.076;2022-11-06T03:31:28;3.30;;;0.33;;
72286;SDS011;60221;45.696;16.076;2022-11-06T03:34:23;3.42;;;0.33;;
72286;SDS011;60221;45.696;16.076;2022-11-06T03:37:10;6.45;;;0.82;;
72286;SDS011;60221;45.696;16.076;2022-11-06T03:39:34;4.92;;;0.53;;
72286;SDS011;60221;45.696;16.076;2022-11-06T03:42:06;5.33;;;0.42;;
72286;SDS011;60221;45.696;16.076;2022-11-06T03:44:42;5.97;;;0.43;;
72286;SDS011;60221;45.696;16.076;2022-11-06T03:47:17;3.95;;;0.40;;
72286;SDS011;60221;45.696;16.076;2022-11-06T03:49:53;5.30;;;0.65;;
72286;SDS011;60221;45.696;16.076;2022-11-06T03:52:28;4.15;;;0.42;;
72286;SDS011;60221;45.696;16.076;2022-11-06T03:55:08;4.35;;;0.40;;
72286;SDS011;60221;45.696;16.076;2022-11-06T03:57:40;4.43;;;0.47;;
72286;SDS011;60221;45.696;16.076;2022-11-06T04:00:22;4.37;;;0.40;;
72286;SDS011;60221;45.696;16.076;2022-11-06T04:02:54;5.55;;;0.70;;
72286;SDS011;60221;45.696;16.076;2022-11-06T04:05:34;4.35;;;0.40;;
72286;SDS011;60221;45.696;16.076;2022-11-06T04:08:04;4.37;;;0.40;;
72286;SDS011;60221;45.696;16.076;2022-11-06T04:10:53;6.73;;;0.57;;
72286;SDS011;60221;45.696;16.076;2022-11-06T04:13:42;6.28;;;0.40;;
72286;SDS011;60221;45.696;16.076;2022-11-06T04:16:23;5.20;;;0.40;;
72286;SDS011;60221;45.696;16.076;2022-11-06T04:18:51;3.10;;;0.35;;
72286;SDS011;60221;45.696;16.076;2022-11-06T04:21:23;7.08;;;0.50;;
72286;SDS011;60221;45.696;16.076;2022-11-06T04:27:22;4.35;;;0.50;;
72286;SDS011;60221;45.696;16.076;2022-11-06T04:30:13;6.28;;;0.60;;
72286;SDS011;60221;45.696;16.076;2022-11-06T04:41:38;4.62;;;0.47;;
72286;SDS011;60221;45.696;16.076;2022-11-06T04:44:39;5.83;;;0.40;;
72286;SDS011;60221;45.696;16.076;2022-11-06T04:47:17;4.22;;;0.70;;
72286;SDS011;60221;45.696;16.076;2022-11-06T04:49:47;7.05;;;0.45;;
72286;SDS011;60221;45.696;16.076;2022-11-06T04:52:19;4.03;;;0.40;;
72286;SDS011;60221;45.696;16.076;2022-11-06T04:54:52;4.20;;;0.40;;
72286;SDS011;60221;45.696;16.076;2022-11-06T04:57:21;8.25;;;0.80;;
72286;SDS011;60221;45.696;16.076;2022-11-06T04:59:49;6.75;;;0.75;;
72286;SDS011;60221;45.696;16.076;2022-11-06T05:02:15;4.83;;;0.57;;
72286;SDS011;60221;45.696;16.076;2022-11-06T05:04:41;6.50;;;0.83;;
72286;SDS011;60221;45.696;16.076;2022-11-06T05:07:07;5.67;;;0.62;;
72286;SDS011;60221;45.696;16.076;2022-11-06T05:09:40;5.92;;;0.98;;
72286;SDS011;60221;45.696;16.076;2022-11-06T05:12:07;4.25;;;0.55;;
72286;SDS011;60221;45.696;16.076;2022-11-06T05:14:34;4.92;;;0.57;;
72286;SDS011;60221;45.696;16.076;2022-11-06T05:17:00;5.87;;;0.80;;
72286;SDS011;60221;45.696;16.076;2022-11-06T05:19:26;4.05;;;0.68;;
72286;SDS011;60221;45.696;16.076;2022-11-06T05:21:52;4.90;;;0.40;;
72286;SDS011;60221;45.696;16.076;2022-11-06T05:24:36;5.25;;;0.93;;
72286;SDS011;60221;45.696;16.076;2022-11-06T05:27:02;6.35;;;0.80;;
72286;SDS011;60221;45.696;16.076;2022-11-06T05:29:29;3.67;;;0.73;;
72286;SDS011;60221;45.696;16.076;2022-11-06T05:31:55;7.85;;;0.72;;
72286;SDS011;60221;45.696;16.076;2022-11-06T05:34:21;4.97;;;0.60;;
72286;SDS011;60221;45.696;16.076;2022-11-06T05:36:47;5.33;;;0.65;;
72286;SDS011;60221;45.696;16.076;2022-11-06T05:39:13;9.90;;;0.53;;
72286;SDS011;60221;45.696;16.076;2022-11-06T05:41:39;4.87;;;0.35;;
72286;SDS011;60221;45.696;16.076;2022-11-06T05:44:05;5.20;;;0.57;;
72286;SDS011;60221;45.696;16.076;2022-11-06T05:46:31;6.10;;;0.60;;
72286;SDS011;60221;45.696;16.076;2022-11-06T05:48:57;4.28;;;0.50;;
72286;SDS011;60221;45.696;16.076;2022-11-06T05:51:23;5.80;;;0.60;;
72286;SDS011;60221;45.696;16.076;2022-11-06T05:53:49;3.83;;;0.80;;
72286;SDS011;60221;45.696;16.076;2022-11-06T05:56:15;6.85;;;0.60;;
72286;SDS011;60221;45.696;16.076;2022-11-06T05:58:41;6.17;;;0.70;;
72286;SDS011;60221;45.696;16.076;2022-11-06T06:01:08;5.10;;;0.20;;
72286;SDS011;60221;45.696;16.076;2022-11-06T06:03:35;7.58;;;0.60;;
72286;SDS011;60221;45.696;16.076;2022-11-06T06:06:01;4.70;;;0.40;;
72286;SDS011;60221;45.696;16.076;2022-11-06T06:08:28;5.42;;;0.55;;
72286;SDS011;60221;45.696;16.076;2022-11-06T06:10:54;4.45;;;0.60;;
72286;SDS011;60221;45.696;16.076;2022-11-06T06:13:20;3.83;;;0.37;;
72286;SDS011;60221;45.696;16.076;2022-11-06T06:15:46;4.93;;;0.40;;
72286;SDS011;60221;45.696;16.076;2022-11-06T06:18:12;6.85;;;0.50;;
72286;SDS011;60221;45.696;16.076;2022-11-06T06:20:38;5.10;;;0.50;;
72286;SDS011;60221;45.696;16.076;2022-11-06T06:23:05;7.05;;;0.50;;
72286;SDS011;60221;45.696;16.076;2022-11-06T06:25:31;4.40;;;0.40;;
72286;SDS011;60221;45.696;16.076;2022-11-06T06:27:58;5.72;;;0.72;;
72286;SDS011;60221;45.696;16.076;2022-11-06T06:30:24;4.73;;;0.30;;
72286;SDS011;60221;45.696;16.076;2022-11-06T06:32:50;4.47;;;0.62;;
72286;SDS011;60221;45.696;16.076;2022-11-06T06:35:17;6.15;;;0.37;;
72286;SDS011;60221;45.696;16.076;2022-11-06T06:37:50;4.58;;;0.30;;
72286;SDS011;60221;45.696;16.076;2022-11-06T06:40:19;4.97;;;0.70;;
72286;SDS011;60221;45.696;16.076;2022-11-06T06:42:47;6.20;;;0.53;;
72286;SDS011;60221;45.696;16.076;2022-11-06T06:45:14;5.17;;;0.40;;
72286;SDS011;60221;45.696;16.076;2022-11-06T06:47:41;4.28;;;0.40;;
72286;SDS011;60221;45.696;16.076;2022-11-06T06:50:08;3.25;;;0.30;;
72286;SDS011;60221;45.696;16.076;2022-11-06T06:52:34;6.53;;;0.70;;
72286;SDS011;60221;45.696;16.076;2022-11-06T06:55:00;5.37;;;0.55;;
72286;SDS011;60221;45.696;16.076;2022-11-06T06:57:26;5.92;;;1.05;;
72286;SDS011;60221;45.696;16.076;2022-11-06T06:59:52;4.87;;;0.80;;
72286;SDS011;60221;45.696;16.076;2022-11-06T07:02:18;4.60;;;0.57;;
72286;SDS011;60221;45.696;16.076;2022-11-06T07:04:44;5.83;;;0.57;;
72286;SDS011;60221;45.696;16.076;2022-11-06T07:07:10;4.20;;;0.60;;
72286;SDS011;60221;45.696;16.076;2022-11-06T07:09:36;5.40;;;0.70;;
72286;SDS011;60221;45.696;16.076;2022-11-06T07:12:03;5.33;;;0.57;;
72286;SDS011;60221;45.696;16.076;2022-11-06T07:14:30;5.72;;;0.42;;
72286;SDS011;60221;45.696;16.076;2022-11-06T07:16:56;3.37;;;0.42;;
72286;SDS011;60221;45.696;16.076;2022-11-06T07:19:22;3.53;;;0.40;;
72286;SDS011;60221;45.696;16.076;2022-11-06T07:21:51;5.30;;;0.53;;
72286;SDS011;60221;45.696;16.076;2022-11-06T07:24:18;4.15;;;0.40;;
72286;SDS011;60221;45.696;16.076;2022-11-06T07:26:45;6.75;;;0.80;;
72286;SDS011;60221;45.696;16.076;2022-11-06T07:29:11;6.03;;;0.70;;
72286;SDS011;60221;45.696;16.076;2022-11-06T07:31:37;5.75;;;0.70;;
72286;SDS011;60221;45.696;16.076;2022-11-06T07:34:03;5.53;;;0.60;;
72286;SDS011;60221;45.696;16.076;2022-11-06T07:36:29;5.55;;;0.75;;
72286;SDS011;60221;45.696;16.076;2022-11-06T07:38:57;5.55;;;0.60;;
72286;SDS011;60221;45.696;16.076;2022-11-06T07:41:24;4.70;;;0.40;;
72286;SDS011;60221;45.696;16.076;2022-11-06T07:43:49;3.80;;;0.40;;
72286;SDS011;60221;45.696;16.076;2022-11-06T07:46:15;6.03;;;0.82;;
72286;SDS011;60221;45.696;16.076;2022-11-06T07:48:42;4.50;;;0.60;;
72286;SDS011;60221;45.696;16.076;2022-11-06T07:51:09;5.83;;;0.50;;
72286;SDS011;60221;45.696;16.076;2022-11-06T07:53:36;3.92;;;0.60;;
72286;SDS011;60221;45.696;16.076;2022-11-06T07:56:03;5.20;;;0.70;;
72286;SDS011;60221;45.696;16.076;2022-11-06T07:58:33;5.08;;;0.65;;
72286;SDS011;60221;45.696;16.076;2022-11-06T08:00:59;2.80;;;0.23;;
72286;SDS011;60221;45.696;16.076;2022-11-06T08:03:26;5.67;;;0.80;;
72286;SDS011;60221;45.696;16.076;2022-11-06T08:05:55;3.98;;;0.50;;
72286;SDS011;60221;45.696;16.076;2022-11-06T08:08:26;3.90;;;0.47;;
72286;SDS011;60221;45.696;16.076;2022-11-06T08:10:53;8.00;;;0.83;;
72286;SDS011;60221;45.696;16.076;2022-11-06T08:13:19;4.30;;;0.60;;
72286;SDS011;60221;45.696;16.076;2022-11-06T08:15:46;5.95;;;0.80;;
72286;SDS011;60221;45.696;16.076;2022-11-06T08:18:12;5.15;;;0.62;;
72286;SDS011;60221;45.696;16.076;2022-11-06T08:20:39;3.60;;;0.40;;
72286;SDS011;60221;45.696;16.076;2022-11-06T08:23:06;4.03;;;0.40;;
72286;SDS011;60221;45.696;16.076;2022-11-06T08:25:35;5.37;;;0.30;;
72286;SDS011;60221;45.696;16.076;2022-11-06T08:28:02;5.42;;;1.02;;
72286;SDS011;60221;45.696;16.076;2022-11-06T08:30:28;7.85;;;0.68;;
72286;SDS011;60221;45.696;16.076;2022-11-06T08:33:04;6.30;;;1.00;;
72286;SDS011;60221;45.696;16.076;2022-11-06T08:35:32;8.60;;;0.80;;
72286;SDS011;60221;45.696;16.076;2022-11-06T08:38:00;8.68;;;1.60;;
72286;SDS011;60221;45.696;16.076;2022-11-06T08:40:27;6.20;;;1.30;;
72286;SDS011;60221;45.696;16.076;2022-11-06T08:42:58;5.78;;;1.32;;
72286;SDS011;60221;45.696;16.076;2022-11-06T08:45:29;4.37;;;0.60;;
72286;SDS011;60221;45.696;16.076;2022-11-06T08:48:02;8.50;;;1.40;;
72286;SDS011;60221;45.696;16.076;2022-11-06T08:50:31;8.85;;;1.52;;
72286;SDS011;60221;45.696;16.076;2022-11-06T08:53:00;6.65;;;1.05;;
72286;SDS011;60221;45.696;16.076;2022-11-06T08:55:33;5.97;;;1.00;;
72286;SDS011;60221;45.696;16.076;2022-11-06T08:57:58;5.03;;;0.80;;
72286;SDS011;60221;45.696;16.076;2022-11-06T09:00:25;5.97;;;0.70;;
72286;SDS011;60221;45.696;16.076;2022-11-06T09:03:05;5.92;;;0.72;;
72286;SDS011;60221;45.696;16.076;2022-11-06T09:05:35;4.12;;;1.02;;
72286;SDS011;60221;45.696;16.076;2022-11-06T09:08:07;7.05;;;0.80;;
72286;SDS011;60221;45.696;16.076;2022-11-06T09:10:35;5.08;;;0.75;;
72286;SDS011;60221;45.696;16.076;2022-11-06T09:13:03;6.13;;;1.03;;
72286;SDS011;60221;45.696;16.076;2022-11-06T09:15:29;4.90;;;0.80;;
72286;SDS011;60221;45.696;16.076;2022-11-06T09:17:56;6.50;;;0.95;;
72286;SDS011;60221;45.696;16.076;2022-11-06T09:20:23;5.55;;;1.15;;
72286;SDS011;60221;45.696;16.076;2022-11-06T09:22:50;6.00;;;1.32;;
72286;SDS011;60221;45.696;16.076;2022-11-06T09:25:17;6.50;;;0.93;;
72286;SDS011;60221;45.696;16.076;2022-11-06T09:27:45;5.53;;;1.25;;
72286;SDS011;60221;45.696;16.076;2022-11-06T09:30:16;4.78;;;0.88;;
72286;SDS011;60221;45.696;16.076;2022-11-06T09:32:46;7.87;;;1.00;;
72286;SDS011;60221;45.696;16.076;2022-11-06T09:35:15;6.72;;;0.98;;
72286;SDS011;60221;45.696;16.076;2022-11-06T09:37:42;6.77;;;1.40;;
72286;SDS011;60221;45.696;16.076;2022-11-06T09:43:07;5.05;;;0.82;;
72286;SDS011;60221;45.696;16.076;2022-11-06T09:45:39;3.42;;;0.70;;
72286;SDS011;60221;45.696;16.076;2022-11-06T09:48:10;7.20;;;1.12;;
72286;SDS011;60221;45.696;16.076;2022-11-06T09:50:57;5.90;;;1.00;;
72286;SDS011;60221;45.696;16.076;2022-11-06T09:53:31;8.28;;;0.90;;
72286;SDS011;60221;45.696;16.076;2022-11-06T09:56:04;6.47;;;0.65;;
72286;SDS011;60221;45.696;16.076;2022-11-06T09:58:36;4.85;;;0.88;;
72286;SDS011;60221;45.696;16.076;2022-11-06T10:01:22;6.28;;;1.27;;
72286;SDS011;60221;45.696;16.076;2022-11-06T10:06:26;6.30;;;1.10;;
72286;SDS011;60221;45.696;16.076;2022-11-06T10:08:55;5.12;;;0.85;;
72286;SDS011;60221;45.696;16.076;2022-11-06T10:17:17;6.03;;;1.00;;
72286;SDS011;60221;45.696;16.076;2022-11-06T10:20:18;6.75;;;0.72;;
72286;SDS011;60221;45.696;16.076;2022-11-06T10:25:43;6.70;;;1.00;;
72286;SDS011;60221;45.696;16.076;2022-11-06T10:28:29;5.00;;;0.80;;
72286;SDS011;60221;45.696;16.076;2022-11-06T10:34:09;5.83;;;1.10;;
72286;SDS011;60221;45.696;16.076;2022-11-06T10:39:21;6.35;;;0.53;;
72286;SDS011;60221;45.696;16.076;2022-11-06T10:41:59;4.92;;;0.68;;
72286;SDS011;60221;45.696;16.076;2022-11-06T10:44:39;5.87;;;0.67;;
72286;SDS011;60221;45.696;16.076;2022-11-06T10:47:20;8.00;;;0.75;;
72286;SDS011;60221;45.696;16.076;2022-11-06T10:49:54;5.92;;;0.70;;
72286;SDS011;60221;45.696;16.076;2022-11-06T10:55:31;6.78;;;0.75;;
72286;SDS011;60221;45.696;16.076;2022-11-06T10:58:17;2.73;;;0.40;;
72286;SDS011;60221;45.696;16.076;2022-11-06T11:00:47;3.85;;;0.70;;
72286;SDS011;60221;45.696;16.076;2022-11-06T11:03:33;4.83;;;1.17;;
72286;SDS011;60221;45.696;16.076;2022-11-06T11:05:59;5.42;;;0.78;;
72286;SDS011;60221;45.696;16.076;2022-11-06T11:14:10;4.25;;;0.90;;
72286;SDS011;60221;45.696;16.076;2022-11-06T11:16:28;6.22;;;0.82;;
72286;SDS011;60221;45.696;16.076;2022-11-06T11:22:16;4.45;;;0.55;;
72286;SDS011;60221;45.696;16.076;2022-11-06T11:25:01;6.83;;;0.70;;
72286;SDS011;60221;45.696;16.076;2022-11-06T11:27:43;4.22;;;0.68;;
72286;SDS011;60221;45.696;16.076;2022-11-06T11:30:18;5.80;;;0.88;;
72286;SDS011;60221;45.696;16.076;2022-11-06T11:32:52;7.33;;;0.80;;
72286;SDS011;60221;45.696;16.076;2022-11-06T11:35:25;7.10;;;1.00;;
72286;SDS011;60221;45.696;16.076;2022-11-06T11:38:08;16.00;;;1.67;;
72286;SDS011;60221;45.696;16.076;2022-11-06T11:40:39;5.90;;;0.85;;
72286;SDS011;60221;45.696;16.076;2022-11-06T11:54:17;4.35;;;0.90;;
72286;SDS011;60221;45.696;16.076;2022-11-06T11:56:50;7.33;;;0.90;;
72286;SDS011;60221;45.696;16.076;2022-11-06T11:59:28;4.08;;;0.82;;
72286;SDS011;60221;45.696;16.076;2022-11-06T12:02:29;6.33;;;0.90;;
72286;SDS011;60221;45.696;16.076;2022-11-06T12:05:07;7.00;;;0.80;;
72286;SDS011;60221;45.696;16.076;2022-11-06T12:07:35;4.08;;;0.50;;
72286;SDS011;60221;45.696;16.076;2022-11-06T12:13:23;6.25;;;0.90;;
72286;SDS011;60221;45.696;16.076;2022-11-06T12:15:52;7.08;;;1.32;;
72286;SDS011;60221;45.696;16.076;2022-11-06T12:18:29;6.37;;;0.70;;
72286;SDS011;60221;45.696;16.076;2022-11-06T12:21:22;3.75;;;0.70;;
72286;SDS011;60221;45.696;16.076;2022-11-06T12:24:02;5.62;;;0.72;;
72286;SDS011;60221;45.696;16.076;2022-11-06T12:26:54;5.72;;;0.60;;
72286;SDS011;60221;45.696;16.076;2022-11-06T12:29:46;7.05;;;1.20;;
72286;SDS011;60221;45.696;16.076;2022-11-06T12:35:28;3.80;;;0.47;;
72286;SDS011;60221;45.696;16.076;2022-11-06T12:43:50;7.20;;;0.75;;
72286;SDS011;60221;45.696;16.076;2022-11-06T12:49:16;4.35;;;0.70;;
72286;SDS011;60221;45.696;16.076;2022-11-06T13:06:57;6.25;;;1.17;;
72286;SDS011;60221;45.696;16.076;2022-11-06T13:09:43;3.22;;;1.02;;
72286;SDS011;60221;45.696;16.076;2022-11-06T13:12:48;4.95;;;0.80;;
72286;SDS011;60221;45.696;16.076;2022-11-06T13:15:43;6.47;;;0.80;;
72286;SDS011;60221;45.696;16.076;2022-11-06T13:23:42;5.20;;;0.72;;
72286;SDS011;60221;45.696;16.076;2022-11-06T13:28:48;4.17;;;0.60;;
72286;SDS011;60221;45.696;16.076;2022-11-06T13:31:24;7.78;;;0.60;;
72286;SDS011;60221;45.696;16.076;2022-11-06T13:34:05;5.75;;;0.82;;
72286;SDS011;60221;45.696;16.076;2022-11-06T13:36:45;4.15;;;0.82;;
72286;SDS011;60221;45.696;16.076;2022-11-06T13:39:14;4.80;;;0.70;;
72286;SDS011;60221;45.696;16.076;2022-11-06T13:41:59;4.33;;;0.63;;
72286;SDS011;60221;45.696;16.076;2022-11-06T13:44:28;6.35;;;0.80;;
72286;SDS011;60221;45.696;16.076;2022-11-06T13:47:11;4.80;;;0.65;;
72286;SDS011;60221;45.696;16.076;2022-11-06T13:53:03;5.95;;;0.95;;
72286;SDS011;60221;45.696;16.076;2022-11-06T13:58:33;3.62;;;0.82;;
72286;SDS011;60221;45.696;16.076;2022-11-06T14:07:15;5.65;;;0.78;;
72286;SDS011;60221;45.696;16.076;2022-11-06T14:09:44;4.00;;;0.80;;
72286;SDS011;60221;45.696;16.076;2022-11-06T14:12:16;5.97;;;1.40;;
72286;SDS011;60221;45.696;16.076;2022-11-06T14:14:46;6.62;;;1.20;;
72286;SDS011;60221;45.696;16.076;2022-11-06T14:22:28;8.50;;;2.40;;
72286;SDS011;60221;45.696;16.076;2022-11-06T14:24:58;8.58;;;1.55;;
72286;SDS011;60221;45.696;16.076;2022-11-06T14:32:57;5.10;;;0.90;;
72286;SDS011;60221;45.696;16.076;2022-11-06T14:40:58;6.87;;;0.80;;
72286;SDS011;60221;45.696;16.076;2022-11-06T14:48:36;6.80;;;0.80;;
72286;SDS011;60221;45.696;16.076;2022-11-06T14:51:07;6.83;;;0.88;;
72286;SDS011;60221;45.696;16.076;2022-11-06T14:53:37;4.62;;;0.88;;
72286;SDS011;60221;45.696;16.076;2022-11-06T14:56:21;5.15;;;0.62;;
72286;SDS011;60221;45.696;16.076;2022-11-06T14:59:37;5.75;;;1.10;;
72286;SDS011;60221;45.696;16.076;2022-11-06T15:01:32;5.13;;;1.50;;
72286;SDS011;60221;45.696;16.076;2022-11-06T15:04:14;6.78;;;1.92;;
72286;SDS011;60221;45.696;16.076;2022-11-06T15:06:49;6.80;;;1.45;;
72286;SDS011;60221;45.696;16.076;2022-11-06T15:11:54;7.92;;;2.20;;
72286;SDS011;60221;45.696;16.076;2022-11-06T15:17:10;7.47;;;2.45;;
72286;SDS011;60221;45.696;16.076;2022-11-06T15:19:41;5.78;;;1.85;;
72286;SDS011;60221;45.696;16.076;2022-11-06T15:22:16;6.35;;;1.25;;
72286;SDS011;60221;45.696;16.076;2022-11-06T15:24:56;6.60;;;1.15;;
72286;SDS011;60221;45.696;16.076;2022-11-06T15:27:43;7.00;;;1.30;;
72286;SDS011;60221;45.696;16.076;2022-11-06T15:30:22;6.37;;;1.25;;
72286;SDS011;60221;45.696;16.076;2022-11-06T15:32:51;7.65;;;1.55;;
72286;SDS011;60221;45.696;16.076;2022-11-06T15:35:23;7.47;;;1.40;;
72286;SDS011;60221;45.696;16.076;2022-11-06T15:38:00;10.60;;;2.62;;
72286;SDS011;60221;45.696;16.076;2022-11-06T15:40:39;6.07;;;1.87;;
72286;SDS011;60221;45.696;16.076;2022-11-06T15:46:05;8.48;;;2.90;;
72286;SDS011;60221;45.696;16.076;2022-11-06T15:48:35;6.78;;;2.33;;
72286;SDS011;60221;45.696;16.076;2022-11-06T15:51:03;11.65;;;2.40;;
72286;SDS011;60221;45.696;16.076;2022-11-06T15:53:51;10.30;;;2.27;;
72286;SDS011;60221;45.696;16.076;2022-11-06T15:56:19;8.43;;;2.05;;
72286;SDS011;60221;45.696;16.076;2022-11-06T15:59:08;8.83;;;2.25;;
72286;SDS011;60221;45.696;16.076;2022-11-06T16:01:45;6.55;;;1.90;;
72286;SDS011;60221;45.696;16.076;2022-11-06T16:04:14;6.42;;;1.65;;
72286;SDS011;60221;45.696;16.076;2022-11-06T16:06:45;5.87;;;1.80;;
72286;SDS011;60221;45.696;16.076;2022-11-06T16:09:14;8.40;;;1.60;;
72286;SDS011;60221;45.696;16.076;2022-11-06T16:11:44;8.65;;;1.85;;
72286;SDS011;60221;45.696;16.076;2022-11-06T16:14:13;6.58;;;1.40;;
72286;SDS011;60221;45.696;16.076;2022-11-06T16:16:41;9.38;;;2.05;;
72286;SDS011;60221;45.696;16.076;2022-11-06T16:19:24;7.37;;;1.80;;
72286;SDS011;60221;45.696;16.076;2022-11-06T16:22:31;10.08;;;3.35;;
72286;SDS011;60221;45.696;16.076;2022-11-06T16:24:57;12.23;;;3.80;;
72286;SDS011;60221;45.696;16.076;2022-11-06T16:27:24;10.60;;;3.77;;
72286;SDS011;60221;45.696;16.076;2022-11-06T16:29:55;12.78;;;4.75;;
72286;SDS011;60221;45.696;16.076;2022-11-06T16:32:26;16.27;;;6.07;;
72286;SDS011;60221;45.696;16.076;2022-11-06T16:34:56;14.20;;;5.97;;
72286;SDS011;60221;45.696;16.076;2022-11-06T16:39:56;15.85;;;5.42;;
72286;SDS011;60221;45.696;16.076;2022-11-06T16:45:05;14.67;;;5.50;;
72286;SDS011;60221;45.696;16.076;2022-11-06T16:53:18;23.30;;;8.55;;
72286;SDS011;60221;45.696;16.076;2022-11-06T16:56:00;20.85;;;8.68;;
72286;SDS011;60221;45.696;16.076;2022-11-06T16:58:31;22.30;;;8.83;;
72286;SDS011;60221;45.696;16.076;2022-11-06T17:01:02;22.00;;;8.83;;
72286;SDS011;60221;45.696;16.076;2022-11-06T17:03:38;18.98;;;7.95;;
72286;SDS011;60221;45.696;16.076;2022-11-06T17:06:04;16.60;;;7.22;;
72286;SDS011;60221;45.696;16.076;2022-11-06T17:08:35;19.67;;;7.97;;
72286;SDS011;60221;45.696;16.076;2022-11-06T17:13:44;17.25;;;7.05;;
72286;SDS011;60221;45.696;16.076;2022-11-06T17:16:13;15.48;;;7.03;;
72286;SDS011;60221;45.696;16.076;2022-11-06T17:18:43;17.15;;;6.62;;
72286;SDS011;60221;45.696;16.076;2022-11-06T17:21:11;20.75;;;7.70;;
72286;SDS011;60221;45.696;16.076;2022-11-06T17:23:41;17.63;;;8.03;;
72286;SDS011;60221;45.696;16.076;2022-11-06T17:26:28;17.02;;;7.22;;
72286;SDS011;60221;45.696;16.076;2022-11-06T17:28:57;21.65;;;8.28;;
72286;SDS011;60221;45.696;16.076;2022-11-06T17:31:24;17.77;;;7.97;;
72286;SDS011;60221;45.696;16.076;2022-11-06T17:33:52;20.12;;;8.30;;
72286;SDS011;60221;45.696;16.076;2022-11-06T17:36:22;17.37;;;7.27;;
72286;SDS011;60221;45.696;16.076;2022-11-06T17:38:52;15.98;;;6.47;;
72286;SDS011;60221;45.696;16.076;2022-11-06T17:41:20;17.87;;;7.25;;
72286;SDS011;60221;45.696;16.076;2022-11-06T17:44:04;15.50;;;5.25;;
72286;SDS011;60221;45.696;16.076;2022-11-06T17:46:38;16.87;;;6.60;;
72286;SDS011;60221;45.696;16.076;2022-11-06T17:49:04;16.57;;;5.70;;
72286;SDS011;60221;45.696;16.076;2022-11-06T17:51:32;14.45;;;6.33;;
72286;SDS011;60221;45.696;16.076;2022-11-06T17:54:18;16.10;;;7.25;;
72286;SDS011;60221;45.696;16.076;2022-11-06T17:56:51;16.87;;;7.37;;
72286;SDS011;60221;45.696;16.076;2022-11-06T17:59:23;14.43;;;6.70;;
72286;SDS011;60221;45.696;16.076;2022-11-06T18:01:50;19.50;;;7.40;;
72286;SDS011;60221;45.696;16.076;2022-11-06T18:04:19;16.42;;;6.53;;